Tuskegee Institute, Alabama
Current Conditions -  °F | °C
As of 10:15 AM on Wednesday 26 Nov 2014 (Local Time) from KAUO Reporting Station
Clear Clear  
Wind Chill: 50°   Ceiling: Unl
Heat Index: 50°   Visibility: 10mi
Dew Point: 21°   Wind: 13mph
Humidity: 32%   Direction: 300°WNW
Pressure: 30.19"   Gusts: 17mph
Location:  32.42°N, 85.69°W
Report Text: KAUO 261615Z AUTO 30011G15KT 10SM CLR 10/M06 A3019 RMK AO1
Loading
Personal Weather Stations






























Interactive Weather Map New forecast layout! Learn more

10-Day Weather Forecast

Advertisements
Track Severe Weather on mobile